< < Back
Terminal Aerodrome Forecast


Current Version              Previous Versions:   1  2  3  4  5  6  7  8  9  

Terminal Aerodrome Forecast

317
FTUS42 KCHS 261130
TAFCHS
TAF
KCHS 261130Z 2612/2712 16006KT P6SM SCT025 BKN040
     FM261800 16010KT P6SM SCT040
     FM270000 17005KT P6SM SCT015 BKN250=

Latest METAR

781
SAUS80 KWBC 270400
MTRCHS
METAR KCHS 270356Z 19006KT 10SM OVC200 24/22 A3026 RMK AO2 SLP248
T02390217


USA.gov is the U.S. government's official web portal to all federal, state and local government web resources and services.